createdAt,value
2019-02-08T00:01:50.049Z,88.04
2019-02-08T00:04:19.403Z,87.33
2019-02-08T00:06:49.038Z,87.24
2019-02-08T00:09:18.614Z,87.24
2019-02-08T00:11:48.484Z,87.20
2019-02-08T00:14:18.156Z,87.06
2019-02-08T00:16:47.487Z,87.06
2019-02-08T00:19:18.143Z,87.21
2019-02-08T00:21:47.481Z,87.21
2019-02-08T00:24:17.141Z,87.41
2019-02-08T00:26:47.340Z,87.60
2019-02-08T00:29:16.962Z,87.60
2019-02-08T00:31:48.289Z,87.21
2019-02-08T00:34:17.630Z,87.13
2019-02-08T00:36:47.058Z,87.19
2019-02-08T00:39:16.396Z,87.19
2019-02-08T00:41:46.270Z,87.01
2019-02-08T00:44:15.598Z,86.98
2019-02-08T00:46:45.252Z,86.80
2019-02-08T00:49:14.587Z,86.90
2019-02-08T00:51:44.472Z,87.10
2019-02-08T00:54:14.111Z,86.67
2019-02-08T00:56:43.981Z,86.67
2019-02-08T00:59:13.321Z,86.75
2019-02-08T01:01:42.665Z,86.75
2019-02-08T01:04:12.249Z,86.67
2019-02-08T01:06:41.668Z,86.94
2019-02-08T01:09:11.218Z,86.88
2019-02-08T01:11:41.155Z,86.93
2019-02-08T01:14:10.830Z,86.97
2019-02-08T01:16:40.699Z,86.79
2019-02-08T01:19:10.025Z,86.85
2019-02-08T01:21:39.727Z,86.23
2019-02-08T01:24:15.263Z,86.33
2019-02-08T01:26:44.743Z,86.21
2019-02-08T01:29:14.076Z,86.06
2019-02-08T01:31:43.717Z,85.87
2019-02-08T01:34:13.344Z,85.81
2019-02-08T01:36:42.804Z,85.79
2019-02-08T01:39:12.534Z,85.73
2019-02-08T01:41:41.875Z,85.48
2019-02-08T01:44:11.202Z,85.62
2019-02-08T01:46:40.837Z,85.62
2019-02-08T01:49:10.741Z,85.00
2019-02-08T01:51:40.087Z,85.00
2019-02-08T01:54:09.554Z,85.23
2019-02-08T01:56:39.452Z,85.23
2019-02-08T01:59:08.769Z,85.38
2019-02-08T02:01:38.194Z,85.42
2019-02-08T02:04:09.258Z,85.52
2019-02-08T02:06:39.979Z,85.73
2019-02-08T02:09:09.647Z,86.03
2019-02-08T02:11:39.106Z,86.03
2019-02-08T02:14:08.697Z,85.97
2019-02-08T02:16:39.293Z,85.97
2019-02-08T02:19:08.685Z,86.44
2019-02-08T02:21:38.046Z,86.44
2019-02-08T02:24:07.595Z,86.88
2019-02-08T02:26:37.227Z,87.04
2019-02-08T02:29:06.976Z,87.08
2019-02-08T02:31:36.576Z,87.08
2019-02-08T02:34:05.966Z,87.09
2019-02-08T02:36:36.676Z,87.06
2019-02-08T02:39:07.941Z,86.98
2019-02-08T02:41:37.878Z,86.76
2019-02-08T02:44:07.466Z,86.69
2019-02-08T02:46:37.091Z,86.50
2019-02-08T02:49:06.709Z,86.50
2019-02-08T02:51:36.296Z,86.54
2019-02-08T02:54:05.697Z,86.21
2019-02-08T02:56:35.327Z,86.21
2019-02-08T02:59:05.782Z,86.07
2019-02-08T03:01:35.131Z,86.07
2019-02-08T03:04:05.137Z,85.69
2019-02-08T03:06:35.049Z,85.69
2019-02-08T03:09:07.486Z,85.74
2019-02-08T03:11:38.005Z,85.74
2019-02-08T03:14:07.336Z,85.45
2019-02-08T03:16:37.841Z,85.37
2019-02-08T03:19:07.236Z,85.37
2019-02-08T03:21:36.875Z,85.42
2019-02-08T03:24:12.881Z,85.30
2019-02-08T03:26:37.896Z,85.36
2019-02-08T03:29:07.221Z,84.78
2019-02-08T03:31:36.863Z,84.71
2019-02-08T03:34:06.193Z,84.68
2019-02-08T03:36:35.832Z,84.55
2019-02-08T03:39:07.078Z,84.54
2019-02-08T03:41:37.179Z,84.62
2019-02-08T03:44:07.426Z,84.62
2019-02-08T03:46:37.045Z,84.65
2019-02-08T03:49:06.488Z,84.75
2019-02-08T03:51:36.330Z,84.58
2019-02-08T03:54:06.135Z,84.60
2019-02-08T03:56:36.115Z,84.60
2019-02-08T03:59:05.527Z,84.76
2019-02-08T04:01:35.199Z,84.91
2019-02-08T04:04:15.041Z,85.07
2019-02-08T04:06:44.394Z,85.10
2019-02-08T04:09:14.164Z,85.01
2019-02-08T04:11:44.164Z,85.01
2019-02-08T04:14:13.496Z,85.00
2019-02-08T04:16:43.131Z,84.86
2019-02-08T04:19:12.701Z,84.78
2019-02-08T04:21:42.213Z,84.62
2019-02-08T04:24:12.073Z,84.53
2019-02-08T04:26:41.424Z,84.33
2019-02-08T04:29:11.079Z,83.76
2019-02-08T04:31:40.665Z,83.76
2019-02-08T04:34:11.762Z,83.46
2019-02-08T04:36:41.392Z,83.41
2019-02-08T04:39:11.167Z,83.16
2019-02-08T04:41:41.094Z,83.45
2019-02-08T04:44:10.434Z,83.45
2019-02-08T04:46:40.074Z,83.39
2019-02-08T04:49:09.413Z,83.55
2019-02-08T04:51:39.053Z,83.64
2019-02-08T04:54:08.375Z,83.83
2019-02-08T04:56:37.722Z,84.10
2019-02-08T04:59:07.751Z,84.33
2019-02-08T05:01:37.442Z,84.65
2019-02-08T05:04:07.327Z,84.93
2019-02-08T05:06:36.969Z,84.89
2019-02-08T05:09:08.010Z,84.89
2019-02-08T05:11:37.650Z,85.29
2019-02-08T05:14:07.258Z,85.31
2019-02-08T05:16:36.619Z,85.31
2019-02-08T05:19:06.026Z,85.60
2019-02-08T05:21:36.344Z,85.60
2019-02-08T05:24:05.985Z,85.84
2019-02-08T05:26:35.615Z,86.12
2019-02-08T05:29:05.216Z,86.05
2019-02-08T05:31:34.555Z,86.05
2019-02-08T05:34:04.409Z,86.06
2019-02-08T05:36:34.037Z,86.26
2019-02-08T05:39:05.028Z,86.39
2019-02-08T05:41:45.460Z,86.43
2019-02-08T05:44:15.175Z,86.34
2019-02-08T05:46:44.510Z,86.16
2019-02-08T05:49:14.176Z,86.14
2019-02-08T05:51:43.510Z,86.14
2019-02-08T05:54:13.363Z,86.17
2019-02-08T05:56:42.721Z,86.17
2019-02-08T05:59:12.565Z,86.02
2019-02-08T06:01:42.451Z,86.02
2019-02-08T06:04:12.403Z,86.17
2019-02-08T06:06:42.267Z,86.17
2019-02-08T06:09:11.614Z,86.33
2019-02-08T06:11:41.513Z,86.52
2019-02-08T06:14:11.596Z,86.58
2019-02-08T06:16:41.250Z,86.58
2019-02-08T06:19:10.839Z,86.67
2019-02-08T06:21:42.088Z,86.79
2019-02-08T06:24:11.526Z,87.08
2019-02-08T06:26:40.851Z,87.41
2019-02-08T06:29:10.365Z,87.86
2019-02-08T06:31:39.848Z,87.86
2019-02-08T06:34:09.198Z,88.26
2019-02-08T06:36:38.526Z,88.34
2019-02-08T06:39:08.578Z,88.98
2019-02-08T06:41:38.455Z,88.98
2019-02-08T06:44:07.871Z,89.17
2019-02-08T06:46:37.501Z,89.26
2019-02-08T06:49:07.281Z,89.49
2019-02-08T06:51:36.852Z,89.67
2019-02-08T06:54:06.306Z,89.98
2019-02-08T06:56:54.113Z,89.98
2019-02-08T06:59:25.093Z,90.02
2019-02-08T07:02:02.020Z,90.05
2019-02-08T07:04:35.914Z,90.31
2019-02-08T07:07:23.439Z,90.58
2019-02-08T07:10:06.624Z,90.58
2019-02-08T07:12:37.903Z,90.61
2019-02-08T07:15:17.254Z,91.38
2019-02-08T07:18:03.339Z,91.38
2019-02-08T07:20:36.967Z,91.22
2019-02-08T07:23:16.333Z,91.34
2019-02-08T07:26:02.556Z,91.46
2019-02-08T07:28:33.828Z,91.70
2019-02-08T07:31:05.071Z,91.61
2019-02-08T07:33:36.219Z,91.92
2019-02-08T07:36:07.373Z,92.39
2019-02-08T07:38:38.348Z,92.74
2019-02-08T07:41:10.110Z,93.11
2019-02-08T07:43:47.587Z,93.52
2019-02-08T07:46:24.481Z,94.13
2019-02-08T07:49:02.942Z,94.78
2019-02-08T07:51:50.959Z,95.20
2019-02-08T07:54:38.156Z,96.08
2019-02-08T07:57:11.827Z,96.08
2019-02-08T07:59:43.104Z,96.15
2019-02-08T08:02:32.439Z,96.34
2019-02-08T08:05:03.677Z,96.34
2019-02-08T08:07:40.621Z,96.41
2019-02-08T08:18:55.163Z,95.75
2019-02-08T08:21:32.963Z,95.48
2019-02-08T08:24:07.164Z,95.37
2019-02-08T08:26:41.544Z,95.37
2019-02-08T08:29:18.041Z,95.11
2019-02-08T08:31:52.795Z,94.77
2019-02-08T08:34:31.168Z,94.34
2019-02-08T08:37:18.750Z,93.65
2019-02-08T08:40:00.016Z,93.65
2019-02-08T08:42:52.592Z,93.58
2019-02-08T08:45:31.073Z,93.39
2019-02-08T08:48:12.573Z,92.99
2019-02-08T08:50:48.497Z,93.26
2019-02-08T08:53:35.168Z,93.49
2019-02-08T08:56:07.930Z,94.07
2019-02-08T08:59:13.853Z,94.07
2019-02-08T09:01:54.893Z,94.48
2019-02-08T09:04:36.200Z,94.70
2019-02-08T09:07:17.369Z,95.20
2019-02-08T09:10:13.095Z,95.20
2019-02-08T09:13:01.267Z,95.11
2019-02-08T09:15:45.738Z,95.15
2019-02-08T09:18:27.689Z,95.17
2019-02-08T09:21:16.743Z,95.10
2019-02-08T09:24:15.959Z,95.24
2019-02-08T09:26:54.476Z,95.37
2019-02-08T09:29:43.778Z,95.59
2019-02-08T09:32:21.971Z,95.59
2019-02-08T09:35:00.582Z,95.26
2019-02-08T09:37:47.535Z,95.02
2019-02-08T09:40:29.236Z,94.89
2019-02-08T09:43:20.182Z,94.52
2019-02-08T09:46:13.048Z,93.81
2019-02-08T09:49:03.603Z,93.81
2019-02-08T09:52:17.707Z,93.72
2019-02-08T09:55:09.866Z,93.15
2019-02-08T09:58:03.768Z,92.96
2019-02-08T10:00:55.579Z,91.92
2019-02-08T10:03:47.554Z,92.12
2019-02-08T10:06:28.598Z,91.43
2019-02-08T10:09:12.380Z,89.60
2019-02-08T10:11:50.904Z,89.21
2019-02-08T10:14:39.990Z,89.19
2019-02-08T10:17:18.262Z,88.83
2019-02-08T10:20:10.834Z,88.63
2019-02-08T10:23:01.774Z,88.57
2019-02-08T10:26:05.309Z,88.63
2019-02-08T10:29:06.794Z,88.16
2019-02-08T10:32:12.574Z,88.21
2019-02-08T10:34:54.146Z,87.54
2019-02-08T10:37:41.723Z,87.12
2019-02-08T10:40:31.012Z,87.04
2019-02-08T10:43:22.500Z,87.06
2019-02-08T10:46:30.110Z,87.09
2019-02-08T10:49:02.929Z,86.83
2019-02-08T10:51:41.361Z,86.95
2019-02-08T10:54:25.623Z,86.60
2019-02-08T10:57:03.810Z,86.71
2019-02-08T11:00:08.373Z,87.02
2019-02-08T11:03:02.493Z,86.56
2019-02-08T11:05:46.890Z,86.68
2019-02-08T11:08:19.389Z,86.34
2019-02-08T11:11:14.697Z,86.38
2019-02-08T11:13:56.235Z,85.62
2019-02-08T11:16:31.991Z,85.64
2019-02-08T11:19:20.187Z,85.34
2019-02-08T11:21:50.328Z,85.46
2019-02-08T11:24:21.375Z,85.46
2019-02-08T11:26:50.981Z,85.58
2019-02-08T11:29:20.330Z,85.36
2019-02-08T11:31:49.961Z,84.41
2019-02-08T11:34:19.562Z,84.47
2019-02-08T11:36:48.965Z,84.33
2019-02-08T11:39:18.731Z,83.93
2019-02-08T11:41:48.443Z,83.82
2019-02-08T11:44:19.594Z,83.77
2019-02-08T11:46:49.661Z,83.58
2019-02-08T11:49:19.051Z,83.15
2019-02-08T11:51:48.619Z,83.34
2019-02-08T11:54:18.167Z,83.54
2019-02-08T11:56:47.500Z,83.24
2019-02-08T11:59:17.139Z,82.71
2019-02-08T12:01:46.651Z,83.16
2019-02-08T12:04:16.254Z,82.80
2019-02-08T12:06:46.178Z,82.85
2019-02-08T12:09:15.541Z,82.06
2019-02-08T12:11:45.177Z,81.68
2019-02-08T12:14:14.520Z,81.57
2019-02-08T12:16:44.228Z,81.41
2019-02-08T12:19:13.562Z,81.61
2019-02-08T12:21:43.206Z,81.37
2019-02-08T12:24:12.779Z,81.23
2019-02-08T12:26:42.491Z,81.12
2019-02-08T12:29:12.110Z,81.04
2019-02-08T12:31:41.998Z,81.37
2019-02-08T12:34:11.335Z,80.70
2019-02-08T12:36:41.299Z,80.69
2019-02-08T12:39:10.970Z,79.94
2019-02-08T12:41:57.638Z,80.16
2019-02-08T12:44:27.220Z,79.88
2019-02-08T12:46:56.585Z,79.71
2019-02-08T12:49:26.110Z,79.65
2019-02-08T12:52:00.494Z,79.62
2019-02-08T12:54:30.181Z,79.25
2019-02-08T12:56:59.532Z,79.60
2019-02-08T12:59:29.564Z,79.45
2019-02-08T13:01:59.229Z,79.62
2019-02-08T13:04:29.566Z,79.23
2019-02-08T13:07:01.511Z,79.37
2019-02-08T13:09:31.570Z,79.79
2019-02-08T13:12:01.215Z,79.52
2019-02-08T13:14:30.558Z,79.77
2019-02-08T13:17:00.268Z,79.76
2019-02-08T13:19:29.656Z,79.19
2019-02-08T13:21:59.230Z,79.23
2019-02-08T13:24:29.675Z,79.68
2019-02-08T13:26:59.251Z,79.13
2019-02-08T13:29:29.559Z,79.27
2019-02-08T13:31:59.203Z,78.99
2019-02-08T13:34:29.635Z,79.65
2019-02-08T13:36:59.358Z,79.65
2019-02-08T13:39:28.730Z,79.31
2019-02-08T13:41:58.538Z,79.28
2019-02-08T13:44:29.306Z,79.62
2019-02-08T13:46:58.895Z,79.54
2019-02-08T13:49:29.632Z,79.98
2019-02-08T13:51:59.215Z,80.42
2019-02-08T13:54:29.803Z,80.45
2019-02-08T13:57:00.703Z,80.29
2019-02-08T13:59:30.819Z,80.38
2019-02-08T14:02:00.580Z,80.52
2019-02-08T14:04:31.109Z,80.75
2019-02-08T14:07:00.454Z,80.76
2019-02-08T14:09:29.835Z,79.94
2019-02-08T14:11:59.651Z,79.94
2019-02-08T14:14:29.697Z,80.50
2019-02-08T14:17:00.095Z,80.37
2019-02-08T14:19:31.649Z,80.42
2019-02-08T14:22:00.983Z,80.37
2019-02-08T14:24:30.735Z,80.12
2019-02-08T14:27:08.394Z,80.09
2019-02-08T14:29:32.791Z,80.10
2019-02-08T14:32:02.131Z,80.00
2019-02-08T14:34:32.027Z,80.31
2019-02-08T14:37:01.910Z,80.25
2019-02-08T14:39:31.561Z,80.59
2019-02-08T14:42:00.898Z,80.67
2019-02-08T14:44:30.717Z,80.54
2019-02-08T14:47:00.049Z,80.52
2019-02-08T14:49:30.045Z,80.45
2019-02-08T14:51:59.673Z,80.17
2019-02-08T14:54:30.135Z,80.30
2019-02-08T14:56:59.740Z,80.33
2019-02-08T14:59:30.399Z,80.53
2019-02-08T15:01:59.732Z,80.24
2019-02-08T15:04:30.121Z,79.85
2019-02-08T15:06:59.954Z,79.85
2019-02-08T15:09:30.615Z,80.17
2019-02-08T15:11:59.942Z,80.05
2019-02-08T15:14:30.060Z,80.15
2019-02-08T15:16:59.732Z,79.94
2019-02-08T15:19:30.294Z,80.00
2019-02-08T15:22:00.132Z,79.61
2019-02-08T15:24:30.203Z,79.58
2019-02-08T15:26:59.805Z,79.48
2019-02-08T15:29:30.401Z,79.83
2019-02-08T15:31:59.890Z,79.78
2019-02-08T15:34:30.448Z,79.97
2019-02-08T15:36:59.832Z,79.97
2019-02-08T15:39:30.186Z,79.62
2019-02-08T15:41:59.817Z,79.77
2019-02-08T15:44:30.377Z,79.70
2019-02-08T15:47:00.047Z,79.90
2019-02-08T15:49:30.183Z,79.84
2019-02-08T15:51:59.830Z,79.61
2019-02-08T15:54:30.159Z,79.76
2019-02-08T15:56:59.859Z,79.63
2019-02-08T15:59:30.213Z,79.64
2019-02-08T16:01:59.854Z,79.64
2019-02-08T16:04:30.323Z,79.82
2019-02-08T16:07:00.616Z,79.84
2019-02-08T16:09:30.279Z,79.72
2019-02-08T16:11:59.851Z,79.72
2019-02-08T16:14:30.975Z,79.92
2019-02-08T16:17:00.303Z,79.75
2019-02-08T16:19:30.386Z,79.90
2019-02-08T16:21:59.894Z,80.03
2019-02-08T16:24:30.169Z,79.85
2019-02-08T16:26:59.847Z,79.75
2019-02-08T16:29:30.895Z,79.73
2019-02-08T16:32:00.216Z,79.85
2019-02-08T16:34:30.331Z,79.87
2019-02-08T16:37:03.597Z,79.75
2019-02-08T16:39:31.270Z,79.69
2019-02-08T16:42:00.921Z,79.90
2019-02-08T16:44:31.783Z,79.78
2019-02-08T16:47:01.189Z,79.86
2019-02-08T16:49:30.836Z,79.48
2019-02-08T16:52:00.173Z,79.48
2019-02-08T16:54:30.500Z,79.74
2019-02-08T16:56:59.944Z,79.62
2019-02-08T16:59:30.363Z,79.71
2019-02-08T17:01:59.969Z,79.71
2019-02-08T17:04:30.423Z,79.60
2019-02-08T17:07:00.300Z,79.58
2019-02-08T17:09:30.430Z,79.52
2019-02-08T17:12:00.066Z,79.67
2019-02-08T17:14:30.473Z,79.40
2019-02-08T17:17:00.134Z,79.48
2019-02-08T17:19:30.513Z,79.34
2019-02-08T17:22:00.075Z,79.57
2019-02-08T17:24:30.462Z,79.49
2019-02-08T17:27:00.066Z,79.57
2019-02-08T17:29:30.369Z,79.66
2019-02-08T17:31:59.712Z,79.76
2019-02-08T17:34:30.715Z,79.50
2019-02-08T17:37:00.086Z,79.42
2019-02-08T17:39:30.492Z,79.58
2019-02-08T17:42:00.064Z,79.55
2019-02-08T17:44:30.800Z,79.56
2019-02-08T17:47:00.221Z,79.40
2019-02-08T17:49:30.627Z,79.57
2019-02-08T17:52:00.217Z,79.56
2019-02-08T17:54:30.450Z,79.55
2019-02-08T17:57:00.896Z,79.50
2019-02-08T17:59:31.498Z,79.15
2019-02-08T18:02:01.160Z,79.22
2019-02-08T18:04:30.608Z,78.85
2019-02-08T18:07:00.125Z,79.20
2019-02-08T18:09:31.452Z,78.78
2019-02-08T18:12:01.086Z,78.74
2019-02-08T18:14:30.666Z,78.75
2019-02-08T18:17:00.385Z,78.74
2019-02-08T18:19:30.977Z,78.63
2019-02-08T18:22:00.580Z,78.64
2019-02-08T18:24:30.511Z,78.42
2019-02-08T18:27:00.154Z,78.53
2019-02-08T18:29:30.559Z,78.58
2019-02-08T18:32:00.243Z,78.58
2019-02-08T18:34:31.244Z,78.29
2019-02-08T18:37:01.825Z,78.16
2019-02-08T18:39:31.512Z,78.30
2019-02-08T18:42:01.452Z,78.43
2019-02-08T18:44:31.759Z,78.28
2019-02-08T18:47:01.392Z,78.12
2019-02-08T18:49:30.719Z,78.15
2019-02-08T18:52:00.294Z,78.04
2019-02-08T18:54:30.588Z,78.09
2019-02-08T18:57:00.222Z,78.18
2019-02-08T18:59:31.540Z,78.17
2019-02-08T19:02:01.243Z,78.15
2019-02-08T19:04:30.759Z,78.05
2019-02-08T19:07:00.353Z,78.35
2019-02-08T19:09:30.581Z,78.30
2019-02-08T19:12:00.481Z,78.17
2019-02-08T19:14:30.687Z,77.88
2019-02-08T19:17:00.065Z,78.10
2019-02-08T19:19:30.713Z,77.88
2019-02-08T19:22:00.513Z,77.84
2019-02-08T19:24:29.839Z,77.71
2019-02-08T19:26:59.342Z,77.72
2019-02-08T19:29:28.677Z,77.93
2019-02-08T19:31:58.041Z,77.83
2019-02-08T19:34:27.455Z,77.87
2019-02-08T19:36:56.781Z,77.77
2019-02-08T19:39:26.488Z,77.80
2019-02-08T19:41:55.849Z,77.77
2019-02-08T19:44:25.443Z,77.76
2019-02-08T19:46:55.795Z,77.83
2019-02-08T19:49:26.609Z,77.68
2019-02-08T19:51:55.944Z,77.78
2019-02-08T19:54:25.361Z,77.57
2019-02-08T19:56:55.681Z,77.82
2019-02-08T19:59:25.047Z,77.75
2019-02-08T20:01:54.553Z,77.84
2019-02-08T20:04:24.113Z,77.62
2019-02-08T20:06:53.699Z,77.79
2019-02-08T20:09:23.396Z,77.77
2019-02-08T20:11:52.726Z,77.64
2019-02-08T20:14:22.256Z,77.69
2019-02-08T20:16:51.582Z,77.84
2019-02-08T20:19:20.976Z,77.73
2019-02-08T20:21:50.384Z,77.81
2019-02-08T20:24:19.748Z,77.70
2019-02-08T20:26:49.381Z,77.53
2019-02-08T20:29:18.718Z,77.70
2019-02-08T20:31:48.331Z,77.70
2019-02-08T20:34:17.662Z,77.70
2019-02-08T20:36:47.244Z,77.70
2019-02-08T20:39:16.610Z,77.76
2019-02-08T20:41:46.262Z,77.56
2019-02-08T20:44:15.853Z,77.68
2019-02-08T20:46:45.732Z,77.76
2019-02-08T20:49:16.619Z,77.71
2019-02-08T20:51:46.187Z,77.93
2019-02-08T20:54:15.586Z,77.95
2019-02-08T20:56:45.525Z,78.04
2019-02-08T20:59:14.892Z,78.00
2019-02-08T21:01:44.548Z,77.87
2019-02-08T21:04:13.917Z,77.99
2019-02-08T21:06:43.871Z,77.97
2019-02-08T21:09:13.880Z,77.88
2019-02-08T21:11:43.205Z,77.81
2019-02-08T21:14:12.828Z,77.95
2019-02-08T21:16:42.593Z,77.95
2019-02-08T21:19:12.179Z,77.56
2019-02-08T21:21:41.545Z,77.63
2019-02-08T21:24:11.013Z,77.58
2019-02-08T21:26:41.050Z,77.23
2019-02-08T21:29:10.753Z,77.28
2019-02-08T21:31:40.300Z,77.34
2019-02-08T21:34:09.823Z,77.35
2019-02-08T21:36:39.442Z,77.27
2019-02-08T21:39:09.477Z,77.24
2019-02-08T21:41:39.394Z,77.50
2019-02-08T21:44:09.130Z,77.50
2019-02-08T21:46:39.107Z,77.06
2019-02-08T21:49:08.842Z,77.16
2019-02-08T21:51:38.462Z,76.95
2019-02-08T21:54:08.004Z,76.91
2019-02-08T21:56:37.716Z,76.71
2019-02-08T21:59:07.385Z,76.63
2019-02-08T22:01:37.040Z,77.03
2019-02-08T22:04:06.494Z,77.03
2019-02-08T22:06:36.355Z,76.76
2019-02-08T22:09:07.520Z,76.46
2019-02-08T22:11:38.481Z,76.46
2019-02-08T22:14:08.121Z,76.30
2019-02-08T22:16:37.449Z,76.33
2019-02-08T22:19:07.074Z,76.49
2019-02-08T22:21:36.418Z,76.46
2019-02-08T22:24:06.349Z,76.77
2019-02-08T22:26:35.986Z,76.48
2019-02-08T22:29:05.326Z,76.45
2019-02-08T22:31:34.947Z,76.24
2019-02-08T22:34:04.569Z,76.01
2019-02-08T22:36:34.345Z,76.04
2019-02-08T22:39:06.535Z,75.86
2019-02-08T22:41:36.475Z,76.10
2019-02-08T22:44:06.061Z,76.16
2019-02-08T22:46:35.405Z,76.13
2019-02-08T22:49:05.157Z,76.15
2019-02-08T22:51:35.100Z,76.13
2019-02-08T22:54:04.427Z,76.15
2019-02-08T22:56:34.362Z,76.08
2019-02-08T22:59:04.076Z,75.80
2019-02-08T23:01:35.158Z,75.75
2019-02-08T23:04:09.437Z,76.07
2019-02-08T23:06:44.634Z,76.04
2019-02-08T23:09:18.805Z,75.88
2019-02-08T23:11:48.256Z,75.80
2019-02-08T23:14:17.593Z,75.69
2019-02-08T23:16:47.225Z,75.69
2019-02-08T23:19:16.603Z,75.87
2019-02-08T23:21:46.586Z,75.97
2019-02-08T23:24:16.219Z,76.27
2019-02-08T23:26:45.549Z,76.67
2019-02-08T23:29:15.186Z,76.99
2019-02-08T23:31:46.142Z,77.31
2019-02-08T23:34:15.479Z,77.93
2019-02-08T23:36:45.681Z,77.53
2019-02-08T23:39:15.365Z,77.14
2019-02-08T23:41:44.716Z,77.75
2019-02-08T23:44:14.311Z,78.10
2019-02-08T23:46:45.551Z,79.12
2019-02-08T23:49:15.420Z,80.42
2019-02-08T23:51:45.533Z,81.35
2019-02-08T23:54:15.137Z,82.22
2019-02-08T23:56:44.657Z,82.70
2019-02-08T23:59:14.213Z,83.68
